Time;durP1;ratioP1;P1;durP2;ratioP2;P2;SDS_P1;SDS_P2;PMS_P1;PMS_P2;Temp;Humidity;BMP_temperature;BMP_pressure;BME280_temperature;BME280_humidity;BME280_pressure;Samples;Min_cycle;Max_cycle;Signal;HPM_P1;HPM_P2
2022/07/16 00:03:42;;;;;;;1.20;0.77;;;;;;;;;;5093324;28;20130;-73
2022/07/16 00:06:10;;;;;;;1.95;0.93;;;;;;;;;;5094221;28;20020;-73
2022/07/16 00:08:36;;;;;;;1.58;1.02;;;;;;;;;;5093143;28;20020;-72
2022/07/16 00:11:03;;;;;;;2.65;1.05;;;;;;;;;;5093089;28;20027;-73
2022/07/16 00:13:29;;;;;;;0.88;0.50;;;;;;;;;;5094425;28;20031;-73
2022/07/16 00:15:55;;;;;;;1.98;1.23;;;;;;;;;;5093756;28;20040;-73
2022/07/16 00:21:05;;;;;;;0.90;0.30;;;;;;;;;;5094517;28;20107;-73
2022/07/16 00:23:30;;;;;;;1.88;0.85;;;;;;;;;;5094816;28;20056;-73
2022/07/16 00:25:55;;;;;;;2.15;0.98;;;;;;;;;;5095744;28;20034;-73
2022/07/16 00:28:23;;;;;;;2.25;1.00;;;;;;;;;;5094853;28;20039;-73
2022/07/16 00:30:51;;;;;;;0.63;0.43;;;;;;;;;;5095678;28;20032;-73
2022/07/16 00:33:16;;;;;;;0.82;0.70;;;;;;;;;;5095751;28;20107;-73
2022/07/16 00:35:42;;;;;;;3.33;1.17;;;;;;;;;;5093963;28;20107;-73
2022/07/16 00:38:08;;;;;;;2.50;1.10;;;;;;;;;;5095571;28;20061;-73
2022/07/16 00:40:36;;;;;;;2.70;0.77;;;;;;;;;;5097444;28;20103;-73
2022/07/16 00:43:06;;;;;;;1.63;1.10;;;;;;;;;;5115927;28;20061;-73
2022/07/16 00:45:33;;;;;;;1.10;0.82;;;;;;;;;;5094649;28;20461;-73
2022/07/16 00:47:59;;;;;;;1.20;0.93;;;;;;;;;;5095565;28;20024;-73
2022/07/16 00:50:24;;;;;;;1.05;0.75;;;;;;;;;;5093228;28;20031;-74
2022/07/16 00:52:50;;;;;;;1.30;0.82;;;;;;;;;;5095379;28;20130;-75
2022/07/16 00:55:15;;;;;;;1.00;0.82;;;;;;;;;;5100297;28;20042;-74
2022/07/16 00:57:40;;;;;;;3.95;0.60;;;;;;;;;;5107598;28;20036;-73
2022/07/16 01:00:08;;;;;;;1.55;0.82;;;;;;;;;;5088697;28;20031;-73
2022/07/16 01:02:34;;;;;;;0.98;0.73;;;;;;;;;;5095372;28;20042;-73
2022/07/16 01:05:00;;;;;;;0.77;0.43;;;;;;;;;;5092312;28;20020;-73
2022/07/16 01:07:28;;;;;;;2.25;0.77;;;;;;;;;;5093352;28;20034;-75
2022/07/16 01:09:54;;;;;;;1.17;0.70;;;;;;;;;;5095518;28;20035;-75
2022/07/16 01:12:19;;;;;;;3.22;0.65;;;;;;;;;;5094309;28;20084;-75
2022/07/16 01:14:45;;;;;;;2.40;0.65;;;;;;;;;;5094004;28;20040;-75
2022/07/16 01:17:14;;;;;;;0.98;0.80;;;;;;;;;;5094577;28;20031;-74
2022/07/16 01:19:40;;;;;;;1.40;0.95;;;;;;;;;;5093425;28;20039;-74
2022/07/16 01:22:05;;;;;;;0.40;0.40;;;;;;;;;;5092805;28;20028;-74
2022/07/16 01:24:31;;;;;;;0.68;0.57;;;;;;;;;;5094209;28;20441;-75
2022/07/16 01:26:56;;;;;;;1.38;0.75;;;;;;;;;;5094383;28;20365;-74
2022/07/16 01:29:22;;;;;;;3.42;0.77;;;;;;;;;;5095065;28;20322;-73
2022/07/16 01:31:52;;;;;;;0.93;0.65;;;;;;;;;;5092850;28;20348;-74
2022/07/16 01:34:26;;;;;;;1.20;0.90;;;;;;;;;;5093960;28;20441;-74
2022/07/16 01:36:54;;;;;;;0.40;0.40;;;;;;;;;;5092431;28;20039;-74
2022/07/16 01:39:19;;;;;;;1.17;0.90;;;;;;;;;;5091147;28;20089;-72
2022/07/16 01:41:52;;;;;;;1.13;0.60;;;;;;;;;;5094024;28;20107;-72
2022/07/16 01:44:18;;;;;;;2.33;0.95;;;;;;;;;;5093597;28;20398;-74
2022/07/16 01:46:43;;;;;;;2.35;0.77;;;;;;;;;;5092496;28;20123;-74
2022/07/16 01:49:08;;;;;;;0.70;0.70;;;;;;;;;;5090176;28;20107;-74
2022/07/16 01:51:34;;;;;;;3.03;1.10;;;;;;;;;;5091863;28;20361;-73
2022/07/16 01:54:02;;;;;;;1.40;1.02;;;;;;;;;;5093308;28;20024;-74
2022/07/16 01:56:27;;;;;;;2.40;1.13;;;;;;;;;;5103057;28;20045;-73
2022/07/16 01:58:52;;;;;;;2.33;0.80;;;;;;;;;;5093763;28;20040;-73
2022/07/16 02:01:20;;;;;;;1.38;0.93;;;;;;;;;;5092243;28;20063;-74
2022/07/16 02:03:46;;;;;;;7.43;1.75;;;;;;;;;;5091580;28;20031;-73
2022/07/16 02:06:11;;;;;;;3.40;1.15;;;;;;;;;;5092498;28;20023;-74
2022/07/16 02:08:36;;;;;;;1.63;1.15;;;;;;;;;;5076484;28;20084;-73
2022/07/16 02:11:02;;;;;;;2.97;1.65;;;;;;;;;;5095947;28;20040;-74
2022/07/16 02:13:27;;;;;;;1.08;0.68;;;;;;;;;;5097458;28;20035;-73
2022/07/16 02:15:55;;;;;;;1.08;0.93;;;;;;;;;;5097310;28;20032;-74
2022/07/16 02:18:25;;;;;;;0.65;0.55;;;;;;;;;;5098037;28;20464;-74
2022/07/16 02:20:53;;;;;;;1.08;0.68;;;;;;;;;;5097669;28;20035;-74
2022/07/16 02:23:19;;;;;;;3.47;0.77;;;;;;;;;;5097643;28;20082;-74
2022/07/16 02:25:44;;;;;;;2.63;1.27;;;;;;;;;;5097479;28;20036;-73
2022/07/16 02:28:09;;;;;;;0.85;0.60;;;;;;;;;;5090107;28;20028;-74
2022/07/16 02:30:37;;;;;;;1.13;0.60;;;;;;;;;;5082935;28;20036;-74
2022/07/16 02:33:06;;;;;;;0.98;0.77;;;;;;;;;;5095728;28;20034;-74
2022/07/16 02:35:32;;;;;;;0.75;0.60;;;;;;;;;;5096456;28;20472;-74
2022/07/16 02:37:58;;;;;;;0.30;0.30;;;;;;;;;;5096066;28;20035;-74
2022/07/16 02:40:27;;;;;;;1.60;0.85;;;;;;;;;;5079191;28;20031;-73
2022/07/16 02:42:54;;;;;;;0.50;0.40;;;;;;;;;;5095739;28;20057;-73
2022/07/16 02:45:22;;;;;;;0.50;0.50;;;;;;;;;;5103936;28;20105;-73
2022/07/16 02:47:50;;;;;;;3.75;1.33;;;;;;;;;;5096390;28;20024;-73
2022/07/16 02:50:16;;;;;;;0.68;0.68;;;;;;;;;;5096777;28;20118;-73
2022/07/16 02:52:41;;;;;;;0.52;0.52;;;;;;;;;;5091618;28;20020;-73
2022/07/16 02:55:07;;;;;;;1.33;0.73;;;;;;;;;;5095581;28;20116;-73
2022/07/16 02:57:32;;;;;;;1.27;0.57;;;;;;;;;;5095873;28;20024;-73
2022/07/16 02:59:58;;;;;;;0.68;0.55;;;;;;;;;;5096394;28;20034;-73
2022/07/16 03:02:23;;;;;;;1.17;0.63;;;;;;;;;;5096543;28;20027;-73
2022/07/16 03:04:49;;;;;;;4.22;0.95;;;;;;;;;;5096256;28;20356;-73
2022/07/16 03:07:14;;;;;;;4.13;0.95;;;;;;;;;;5069096;28;20368;-74
2022/07/16 03:09:42;;;;;;;0.55;0.55;;;;;;;;;;5095655;28;20085;-73
2022/07/16 03:12:08;;;;;;;2.08;0.70;;;;;;;;;;5079433;28;20040;-73
2022/07/16 03:14:33;;;;;;;2.38;0.73;;;;;;;;;;5096025;28;20105;-73
2022/07/16 03:16:58;;;;;;;3.70;0.75;;;;;;;;;;5091738;28;20026;-74
2022/07/16 03:19:23;;;;;;;1.85;0.82;;;;;;;;;;5097444;28;20051;-73
2022/07/16 03:21:54;;;;;;;1.33;0.75;;;;;;;;;;5095716;28;20107;-73
2022/07/16 03:24:21;;;;;;;1.73;1.05;;;;;;;;;;5095330;28;20028;-74
2022/07/16 03:26:47;;;;;;;0.50;0.50;;;;;;;;;;5094988;28;20028;-74
2022/07/16 03:29:14;;;;;;;0.98;0.40;;;;;;;;;;5090690;28;20487;-74
2022/07/16 03:31:40;;;;;;;0.98;0.90;;;;;;;;;;5095404;28;20029;-74
2022/07/16 03:34:08;;;;;;;0.63;0.57;;;;;;;;;;5093955;28;20092;-73
2022/07/16 03:36:34;;;;;;;0.75;0.75;;;;;;;;;;5081662;28;20063;-73
2022/07/16 03:41:27;;;;;;;0.90;0.52;;;;;;;;;;5096263;28;20063;-74
2022/07/16 03:43:53;;;;;;;1.35;0.47;;;;;;;;;;5091997;28;20039;-73
2022/07/16 03:46:18;;;;;;;1.42;0.68;;;;;;;;;;5095883;28;20020;-74
2022/07/16 03:48:46;;;;;;;0.45;0.40;;;;;;;;;;5096721;28;20042;-74
2022/07/16 03:51:11;;;;;;;0.75;0.60;;;;;;;;;;5096696;28;20028;-74
2022/07/16 03:53:40;;;;;;;0.68;0.43;;;;;;;;;;5087708;28;20345;-74
2022/07/16 03:56:06;;;;;;;0.90;0.73;;;;;;;;;;5084824;28;20403;-74
2022/07/16 03:58:31;;;;;;;0.50;0.50;;;;;;;;;;5093965;28;20073;-74
2022/07/16 04:00:56;;;;;;;0.80;0.55;;;;;;;;;;5094639;28;20453;-75
2022/07/16 04:03:23;;;;;;;0.82;0.70;;;;;;;;;;5091446;28;20029;-74
2022/07/16 04:05:50;;;;;;;0.47;0.47;;;;;;;;;;5075190;28;20102;-74
2022/07/16 04:08:18;;;;;;;0.43;0.43;;;;;;;;;;5078486;28;20055;-73
2022/07/16 04:10:48;;;;;;;0.22;0.22;;;;;;;;;;5094635;28;20024;-74
2022/07/16 04:13:16;;;;;;;0.63;0.55;;;;;;;;;;5096006;28;20028;-75
2022/07/16 04:15:42;;;;;;;2.55;1.42;;;;;;;;;;5093756;28;20039;-75
2022/07/16 04:18:10;;;;;;;0.70;0.60;;;;;;;;;;5081436;28;20035;-74
2022/07/16 04:20:35;;;;;;;0.40;0.40;;;;;;;;;;5095109;28;20027;-74
2022/07/16 04:23:00;;;;;;;1.75;1.13;;;;;;;;;;5095488;28;20327;-74
2022/07/16 04:25:31;;;;;;;1.40;0.80;;;;;;;;;;5095057;28;20020;-74
2022/07/16 04:27:56;;;;;;;0.60;0.40;;;;;;;;;;5086920;28;20051;-74
2022/07/16 04:30:22;;;;;;;0.73;0.70;;;;;;;;;;5095277;28;20445;-74
2022/07/16 04:32:47;;;;;;;0.60;0.40;;;;;;;;;;5094958;28;20107;-73
2022/07/16 04:35:15;;;;;;;0.38;0.38;;;;;;;;;;5095712;28;20028;-73
2022/07/16 04:37:41;;;;;;;0.40;0.40;;;;;;;;;;5095513;28;20036;-73
2022/07/16 04:40:08;;;;;;;0.20;0.20;;;;;;;;;;5094603;28;20103;-74
2022/07/16 04:42:39;;;;;;;9.90;1.10;;;;;;;;;;5095058;28;20032;-73
2022/07/16 04:45:07;;;;;;;5.15;0.93;;;;;;;;;;5093721;28;20034;-73
2022/07/16 04:47:35;;;;;;;0.52;0.50;;;;;;;;;;5095821;28;20020;-73
2022/07/16 04:50:01;;;;;;;1.58;0.95;;;;;;;;;;5094047;28;20024;-73
2022/07/16 04:52:27;;;;;;;0.60;0.50;;;;;;;;;;5095548;28;20077;-74
2022/07/16 04:54:52;;;;;;;1.05;0.52;;;;;;;;;;5091551;28;20415;-73
2022/07/16 04:57:20;;;;;;;0.85;0.47;;;;;;;;;;5102483;28;20023;-74
2022/07/16 04:59:48;;;;;;;1.02;0.60;;;;;;;;;;5094578;28;20019;-73
2022/07/16 05:05:02;;;;;;;0.70;0.40;;;;;;;;;;5094180;28;20034;-74
2022/07/16 05:07:27;;;;;;;0.80;0.63;;;;;;;;;;5094518;28;20058;-75
2022/07/16 05:09:53;;;;;;;0.85;0.50;;;;;;;;;;5095200;28;20051;-74
2022/07/16 05:12:18;;;;;;;0.70;0.70;;;;;;;;;;5093383;28;20054;-75
2022/07/16 05:14:43;;;;;;;0.65;0.65;;;;;;;;;;5093784;28;20051;-75
2022/07/16 05:17:11;;;;;;;0.70;0.40;;;;;;;;;;5094997;28;20036;-74
2022/07/16 05:19:36;;;;;;;1.13;0.65;;;;;;;;;;5094608;28;20032;-74
2022/07/16 05:22:02;;;;;;;1.00;0.57;;;;;;;;;;5092320;28;20023;-73
2022/07/16 05:24:27;;;;;;;2.97;0.73;;;;;;;;;;5093424;28;20036;-74
2022/07/16 05:26:53;;;;;;;0.57;0.40;;;;;;;;;;5093244;28;20023;-73
2022/07/16 05:29:18;;;;;;;1.75;0.90;;;;;;;;;;5095051;28;20020;-73
2022/07/16 05:31:43;;;;;;;0.55;0.40;;;;;;;;;;5093567;28;20047;-73
2022/07/16 05:34:09;;;;;;;1.13;0.60;;;;;;;;;;5094195;28;20093;-74
2022/07/16 05:36:37;;;;;;;1.63;0.90;;;;;;;;;;5088922;28;20115;-74
2022/07/16 05:39:02;;;;;;;0.63;0.55;;;;;;;;;;5094725;28;20036;-73
2022/07/16 05:41:27;;;;;;;1.77;0.70;;;;;;;;;;5090183;28;20365;-73
2022/07/16 05:43:53;;;;;;;0.82;0.70;;;;;;;;;;5089421;28;20430;-74
2022/07/16 05:46:20;;;;;;;1.17;0.82;;;;;;;;;;5093290;28;20349;-73
2022/07/16 05:48:45;;;;;;;3.15;1.45;;;;;;;;;;5094939;28;20023;-73
2022/07/16 05:51:11;;;;;;;1.45;0.85;;;;;;;;;;5092354;28;20043;-73
2022/07/16 05:53:39;;;;;;;1.17;0.82;;;;;;;;;;5093262;28;20024;-73
2022/07/16 05:56:05;;;;;;;0.95;0.75;;;;;;;;;;5095656;28;20032;-73
2022/07/16 05:58:30;;;;;;;4.13;0.95;;;;;;;;;;5090738;28;20043;-73
2022/07/16 06:00:58;;;;;;;0.95;0.70;;;;;;;;;;5092749;28;20028;-73
2022/07/16 06:03:26;;;;;;;2.40;1.10;;;;;;;;;;5097325;28;20103;-73
2022/07/16 06:05:54;;;;;;;0.73;0.73;;;;;;;;;;5096988;28;20056;-72
2022/07/16 06:08:19;;;;;;;1.40;0.88;;;;;;;;;;5073361;28;20396;-73
2022/07/16 06:10:48;;;;;;;1.35;0.90;;;;;;;;;;5093018;28;20020;-73
2022/07/16 06:13:13;;;;;;;0.73;0.70;;;;;;;;;;5093681;28;20035;-74
2022/07/16 06:15:39;;;;;;;1.50;0.70;;;;;;;;;;5087993;28;20028;-74
2022/07/16 06:18:04;;;;;;;1.25;0.88;;;;;;;;;;5093695;28;20441;-74
2022/07/16 06:20:32;;;;;;;1.50;0.77;;;;;;;;;;5092631;28;20031;-74
2022/07/16 06:22:57;;;;;;;1.23;0.88;;;;;;;;;;5090608;28;20028;-73
2022/07/16 06:25:23;;;;;;;1.33;0.75;;;;;;;;;;5093029;28;20031;-73
2022/07/16 06:27:49;;;;;;;0.40;0.40;;;;;;;;;;5092849;28;20016;-73
2022/07/16 06:30:14;;;;;;;0.73;0.47;;;;;;;;;;5087392;28;20357;-73
2022/07/16 06:32:40;;;;;;;1.42;0.70;;;;;;;;;;5094373;28;20510;-73
2022/07/16 06:35:06;;;;;;;1.42;0.57;;;;;;;;;;5091075;28;20053;-73
2022/07/16 06:37:34;;;;;;;1.08;0.60;;;;;;;;;;5093911;28;20035;-73
2022/07/16 06:40:02;;;;;;;1.17;0.77;;;;;;;;;;5094016;28;20031;-73
2022/07/16 06:42:27;;;;;;;2.13;0.93;;;;;;;;;;5089565;28;20034;-73
2022/07/16 06:44:53;;;;;;;4.00;0.45;;;;;;;;;;5091127;28;20032;-73
2022/07/16 06:47:18;;;;;;;1.58;0.88;;;;;;;;;;5094178;28;20107;-73
2022/07/16 06:49:43;;;;;;;3.83;1.52;;;;;;;;;;5092733;28;20070;-73
2022/07/16 06:52:09;;;;;;;0.93;0.68;;;;;;;;;;5093693;28;20110;-73
2022/07/16 06:54:34;;;;;;;0.60;0.60;;;;;;;;;;5092955;28;20095;-73
2022/07/16 06:57:00;;;;;;;0.52;0.50;;;;;;;;;;5090490;28;20054;-73
2022/07/16 06:59:27;;;;;;;0.60;0.60;;;;;;;;;;5096158;28;20056;-73
2022/07/16 07:01:55;;;;;;;0.63;0.55;;;;;;;;;;5096284;28;20020;-73
2022/07/16 07:04:20;;;;;;;0.68;0.60;;;;;;;;;;5107063;28;20020;-74
2022/07/16 07:06:46;;;;;;;0.60;0.43;;;;;;;;;;5097508;28;20035;-74
2022/07/16 07:09:11;;;;;;;0.40;0.40;;;;;;;;;;5096185;28;20714;-73
2022/07/16 07:11:40;;;;;;;0.40;0.40;;;;;;;;;;5096779;28;20039;-73
2022/07/16 07:14:08;;;;;;;1.17;0.85;;;;;;;;;;5095118;28;20051;-73
2022/07/16 07:16:34;;;;;;;3.10;0.43;;;;;;;;;;5096664;28;20020;-73
2022/07/16 07:18:59;;;;;;;0.40;0.40;;;;;;;;;;5095715;28;20028;-73
2022/07/16 07:21:27;;;;;;;0.30;0.30;;;;;;;;;;5095747;28;20028;-73
2022/07/16 07:23:53;;;;;;;0.17;0.10;;;;;;;;;;5095414;28;20107;-73
2022/07/16 07:26:19;;;;;;;0.47;0.30;;;;;;;;;;5092722;28;20115;-73
2022/07/16 07:28:44;;;;;;;0.70;0.40;;;;;;;;;;5094596;28;20031;-74
2022/07/16 07:31:12;;;;;;;0.47;0.30;;;;;;;;;;5096957;28;20062;-73
2022/07/16 07:33:38;;;;;;;0.28;0.20;;;;;;;;;;5086108;28;20036;-73
2022/07/16 07:36:04;;;;;;;0.70;0.20;;;;;;;;;;5096000;28;20039;-73
2022/07/16 07:38:30;;;;;;;0.10;0.10;;;;;;;;;;5093984;28;20047;-74
2022/07/16 07:40:55;;;;;;;0.10;0.10;;;;;;;;;;5095564;28;20437;-74
2022/07/16 07:43:23;;;;;;;0.47;0.13;;;;;;;;;;5095734;28;20369;-74
2022/07/16 07:45:50;;;;;;;0.10;0.10;;;;;;;;;;5096953;28;20113;-74
2022/07/16 07:48:16;;;;;;;0.10;0.10;;;;;;;;;;5094461;28;20032;-74
2022/07/16 07:50:44;;;;;;;0.20;0.10;;;;;;;;;;5093554;28;20409;-74
2022/07/16 07:53:11;;;;;;;6.03;1.55;;;;;;;;;;5095630;28;20028;-74
2022/07/16 07:55:37;;;;;;;0.15;0.15;;;;;;;;;;5094050;28;20035;-74
2022/07/16 07:58:02;;;;;;;0.85;0.38;;;;;;;;;;5098751;28;20357;-74
2022/07/16 08:00:28;;;;;;;0.30;0.30;;;;;;;;;;5096410;28;20112;-74
2022/07/16 08:02:56;;;;;;;0.20;0.20;;;;;;;;;;5094825;28;20047;-73
2022/07/16 08:05:21;;;;;;;0.55;0.30;;;;;;;;;;5093995;28;20039;-73
2022/07/16 08:07:47;;;;;;;0.50;0.43;;;;;;;;;;5092612;28;20475;-73
2022/07/16 08:10:16;;;;;;;0.50;0.50;;;;;;;;;;5094855;28;20024;-73
2022/07/16 08:12:50;;;;;;;0.10;0.10;;;;;;;;;;5077144;28;20042;-77
2022/07/16 08:15:16;;;;;;;0.20;0.20;;;;;;;;;;5090221;28;20055;-75
2022/07/16 08:17:41;;;;;;;0.20;0.20;;;;;;;;;;5094036;28;20102;-74
2022/07/16 08:20:16;;;;;;;0.30;0.30;;;;;;;;;;5093801;28;20043;-76
2022/07/16 08:22:44;;;;;;;1.38;0.35;;;;;;;;;;5077744;28;20024;-75
2022/07/16 08:27:56;;;;;;;0.30;0.10;;;;;;;;;;5090451;28;20427;-73
2022/07/16 08:30:24;;;;;;;0.25;0.10;;;;;;;;;;5091824;28;20028;-76
2022/07/16 08:32:54;;;;;;;0.30;0.30;;;;;;;;;;5089908;28;20028;-75
2022/07/16 08:35:20;;;;;;;0.63;0.30;;;;;;;;;;5091374;28;20040;-75
2022/07/16 08:37:46;;;;;;;0.30;0.25;;;;;;;;;;5092338;28;20168;-75
2022/07/16 08:40:19;;;;;;;0.57;0.30;;;;;;;;;;5093265;28;20031;-74
2022/07/16 08:42:47;;;;;;;0.10;0.10;;;;;;;;;;5090905;28;20032;-74
2022/07/16 08:45:15;;;;;;;0.60;0.25;;;;;;;;;;5092694;28;20036;-74
2022/07/16 08:47:43;;;;;;;0.20;0.20;;;;;;;;;;5092302;28;20102;-74
2022/07/16 08:50:11;;;;;;;0.77;0.40;;;;;;;;;;5089065;28;20031;-75
2022/07/16 08:52:45;;;;;;;0.30;0.30;;;;;;;;;;5095726;28;20120;-73
2022/07/16 08:55:11;;;;;;;1.67;0.38;;;;;;;;;;5092692;28;20448;-75
2022/07/16 08:57:37;;;;;;;0.40;0.20;;;;;;;;;;5095109;28;20024;-75
2022/07/16 09:00:06;;;;;;;0.10;0.10;;;;;;;;;;5093547;28;20446;-73
2022/07/16 09:02:35;;;;;;;0.47;0.40;;;;;;;;;;5092529;28;20020;-73
2022/07/16 09:05:00;;;;;;;1.13;0.38;;;;;;;;;;5093253;28;20027;-73
2022/07/16 09:07:28;;;;;;;0.55;0.45;;;;;;;;;;5093296;28;20505;-73
2022/07/16 09:09:53;;;;;;;0.20;0.20;;;;;;;;;;5094047;28;20035;-73
2022/07/16 09:12:37;;;;;;;0.00;0.00;;;;;;;;;;5093190;28;20016;-73
2022/07/16 09:15:31;;;;;;;0.20;0.20;;;;;;;;;;5092789;28;20020;-73
2022/07/16 09:18:42;;;;;;;0.82;0.50;;;;;;;;;;5074638;28;20416;-74
2022/07/16 09:21:08;;;;;;;0.20;0.20;;;;;;;;;;5068138;28;20485;-74
2022/07/16 09:23:34;;;;;;;0.60;0.45;;;;;;;;;;5094646;28;20099;-73
2022/07/16 09:26:02;;;;;;;0.30;0.30;;;;;;;;;;5091743;28;20023;-73
2022/07/16 09:28:46;;;;;;;0.20;0.20;;;;;;;;;;5094740;28;20020;-74
2022/07/16 09:31:34;;;;;;;3.90;0.38;;;;;;;;;;5093066;28;20065;-75
2022/07/16 09:34:08;;;;;;;0.00;0.00;;;;;;;;;;5074443;28;20047;-74
2022/07/16 09:36:35;;;;;;;0.40;0.25;;;;;;;;;;5073664;28;20035;-75
2022/07/16 09:39:01;;;;;;;0.28;0.28;;;;;;;;;;5096337;28;20096;-74
2022/07/16 09:41:27;;;;;;;0.00;0.00;;;;;;;;;;5093437;28;20040;-76
2022/07/16 09:43:57;;;;;;;0.05;0.05;;;;;;;;;;5092631;28;20034;-74
2022/07/16 09:46:23;;;;;;;0.98;0.40;;;;;;;;;;5092853;28;20040;-74
2022/07/16 09:48:53;;;;;;;0.20;0.20;;;;;;;;;;5091717;28;20028;-74
2022/07/16 09:51:25;;;;;;;0.13;0.13;;;;;;;;;;5093093;28;20019;-76
2022/07/16 09:53:55;;;;;;;0.40;0.10;;;;;;;;;;5093380;28;20034;-74
2022/07/16 09:56:21;;;;;;;0.20;0.20;;;;;;;;;;5092429;28;20473;-74
2022/07/16 09:58:52;;;;;;;0.20;0.10;;;;;;;;;;5090920;28;20056;-74
2022/07/16 10:01:19;;;;;;;0.10;0.10;;;;;;;;;;5090743;28;20055;-76
2022/07/16 10:03:45;;;;;;;0.30;0.30;;;;;;;;;;5092841;28;20730;-75
2022/07/16 10:06:15;;;;;;;1.27;1.00;;;;;;;;;;5094207;28;20028;-76
2022/07/16 10:08:43;;;;;;;0.47;0.47;;;;;;;;;;5091380;28;20024;-75
2022/07/16 10:11:11;;;;;;;0.47;0.20;;;;;;;;;;5092635;28;20441;-74
2022/07/16 10:13:47;;;;;;;0.17;0.17;;;;;;;;;;5094878;28;20043;-74
2022/07/16 10:16:14;;;;;;;0.52;0.32;;;;;;;;;;5094252;28;20020;-75
2022/07/16 10:18:41;;;;;;;0.20;0.20;;;;;;;;;;5089127;28;20040;-76
2022/07/16 10:21:11;;;;;;;0.10;0.10;;;;;;;;;;5093490;28;20028;-75
2022/07/16 10:24:07;;;;;;;0.68;0.35;;;;;;;;;;5093438;28;20016;-76
2022/07/16 10:26:35;;;;;;;0.20;0.13;;;;;;;;;;5087530;28;20363;-72
2022/07/16 10:29:04;;;;;;;0.25;0.20;;;;;;;;;;5091384;28;20155;-74
2022/07/16 10:31:33;;;;;;;0.20;0.20;;;;;;;;;;5081810;28;20441;-75
2022/07/16 10:34:13;;;;;;;0.20;0.20;;;;;;;;;;5089004;28;20028;-74
2022/07/16 10:36:52;;;;;;;0.32;0.32;;;;;;;;;;5091444;28;20027;-75
2022/07/16 10:39:18;;;;;;;0.90;0.30;;;;;;;;;;5095965;28;20039;-74
2022/07/16 10:41:55;;;;;;;0.43;0.40;;;;;;;;;;5097029;28;20015;-75
2022/07/16 10:44:22;;;;;;;1.75;0.43;;;;;;;;;;5079160;28;20035;-74
2022/07/16 10:46:57;;;;;;;0.25;0.25;;;;;;;;;;5106786;28;20016;-75
2022/07/16 10:49:24;;;;;;;0.22;0.10;;;;;;;;;;5107091;28;20039;-74
2022/07/16 10:52:05;;;;;;;0.30;0.30;;;;;;;;;;5098052;28;20464;-74
2022/07/16 10:54:33;;;;;;;0.15;0.10;;;;;;;;;;5094094;28;20085;-75
2022/07/16 10:57:09;;;;;;;0.30;0.30;;;;;;;;;;5095974;28;20028;-75
2022/07/16 10:59:40;;;;;;;0.70;0.45;;;;;;;;;;5094988;28;20028;-75
2022/07/16 11:02:13;;;;;;;0.10;0.10;;;;;;;;;;5096222;28;20024;-76
2022/07/16 11:04:52;;;;;;;0.90;0.22;;;;;;;;;;5094877;28;20357;-75
2022/07/16 11:07:21;;;;;;;0.45;0.10;;;;;;;;;;5095341;28;20020;-76
2022/07/16 11:09:50;;;;;;;1.20;0.50;;;;;;;;;;5095643;28;20066;-75
2022/07/16 11:12:25;;;;;;;0.22;0.20;;;;;;;;;;5095356;28;20361;-76
2022/07/16 11:14:53;;;;;;;0.10;0.10;;;;;;;;;;5096244;28;20020;-75
2022/07/16 11:17:25;;;;;;;0.35;0.10;;;;;;;;;;5096524;28;20020;-76
2022/07/16 11:19:55;;;;;;;0.20;0.13;;;;;;;;;;5095276;28;20110;-77
2022/07/16 11:22:26;;;;;;;0.00;0.00;;;;;;;;;;5093739;28;20020;-76
2022/07/16 11:24:55;;;;;;;;;;;;;;;;;;5094495;28;20055;-76
2022/07/16 11:27:37;;;;;;;0.45;0.45;;;;;;;;;;5096139;28;19923;-77
2022/07/16 11:30:09;;;;;;;0.20;0.20;;;;;;;;;;5096119;28;20055;-76
2022/07/16 11:32:56;;;;;;;0.47;0.30;;;;;;;;;;5094505;28;20024;-78
2022/07/16 11:35:26;;;;;;;1.60;0.30;;;;;;;;;;5093653;28;20028;-76
2022/07/16 11:37:56;;;;;;;0.55;0.52;;;;;;;;;;5092831;28;20061;-76
2022/07/16 11:40:42;;;;;;;2.17;0.85;;;;;;;;;;5085737;28;20103;-76
2022/07/16 11:43:08;;;;;;;0.25;0.25;;;;;;;;;;5093342;28;20354;-76
2022/07/16 11:45:42;;;;;;;2.40;0.28;;;;;;;;;;5092307;28;20391;-76
2022/07/16 11:48:19;;;;;;;0.80;0.40;;;;;;;;;;5068486;28;20064;-77
2022/07/16 11:50:49;;;;;;;0.60;0.25;;;;;;;;;;5085751;28;20111;-77
2022/07/16 11:53:27;;;;;;;1.88;0.50;;;;;;;;;;5084415;28;20028;-77
2022/07/16 11:55:58;;;;;;;0.10;0.10;;;;;;;;;;5083441;28;20027;-76
2022/07/16 11:58:23;;;;;;;;;;;;;;;;;;5090083;28;20101;-78
2022/07/16 12:00:49;;;;;;;0.90;0.30;;;;;;;;;;5090468;28;19919;-77
2022/07/16 12:03:15;;;;;;;0.32;0.30;;;;;;;;;;5095677;28;20080;-79
2022/07/16 12:05:40;;;;;;;5.40;0.30;;;;;;;;;;5092860;28;20383;-77
2022/07/16 12:08:08;;;;;;;0.25;0.25;;;;;;;;;;5094519;28;20031;-78
2022/07/16 12:10:33;;;;;;;0.15;0.15;;;;;;;;;;5094382;28;20024;-77
2022/07/16 12:13:11;;;;;;;0.35;0.35;;;;;;;;;;5094816;28;20107;-77
2022/07/16 12:15:56;;;;;;;1.23;0.65;;;;;;;;;;5087603;28;20024;-77
2022/07/16 12:18:23;;;;;;;0.20;0.20;;;;;;;;;;5094039;28;20020;-77
2022/07/16 12:20:50;;;;;;;0.75;0.55;;;;;;;;;;5092078;28;20068;-77
2022/07/16 12:23:39;;;;;;;0.25;0.25;;;;;;;;;;5090491;28;20017;-76
2022/07/16 12:26:11;;;;;;;0.57;0.38;;;;;;;;;;5093539;28;20510;-78
2022/07/16 12:28:36;;;;;;;0.93;0.50;;;;;;;;;;5075290;28;20450;-76
2022/07/16 12:31:11;;;;;;;0.35;0.32;;;;;;;;;;5095637;28;20058;-77
2022/07/16 12:33:37;;;;;;;3.20;0.40;;;;;;;;;;5094087;28;20348;-79
2022/07/16 12:36:03;;;;;;;0.30;0.30;;;;;;;;;;5086574;28;20036;-79
2022/07/16 12:38:58;;;;;;;1.92;1.00;;;;;;;;;;5080227;28;20469;-77
2022/07/16 12:41:27;;;;;;;1.10;0.60;;;;;;;;;;5089863;28;20048;-77
2022/07/16 12:43:57;;;;;;;0.47;0.47;;;;;;;;;;5093588;28;20024;-78
2022/07/16 12:46:35;;;;;;;0.32;0.30;;;;;;;;;;5084159;28;20016;-77
2022/07/16 12:49:09;;;;;;;0.63;0.45;;;;;;;;;;5087448;28;20442;-76
2022/07/16 12:51:44;;;;;;;0.20;0.20;;;;;;;;;;5092904;28;20028;-76
2022/07/16 12:54:11;;;;;;;1.02;0.55;;;;;;;;;;5087250;28;20429;-75
2022/07/16 12:59:23;;;;;;;0.80;0.45;;;;;;;;;;5091906;28;20042;-74
2022/07/16 13:01:51;;;;;;;0.45;0.38;;;;;;;;;;5090888;28;20349;-75
2022/07/16 13:04:17;;;;;;;0.10;0.10;;;;;;;;;;5088473;28;20405;-74
2022/07/16 13:06:43;;;;;;;0.50;0.40;;;;;;;;;;5092856;28;20032;-74
2022/07/16 13:09:09;;;;;;;0.10;0.10;;;;;;;;;;5092684;28;20027;-74
2022/07/16 13:11:36;;;;;;;0.22;0.13;;;;;;;;;;5096822;28;20047;-74
2022/07/16 13:14:03;;;;;;;5.43;1.00;;;;;;;;;;5092542;28;20052;-74
2022/07/16 13:16:30;;;;;;;1.00;0.50;;;;;;;;;;5094655;28;20118;-74
2022/07/16 13:18:55;;;;;;;0.65;0.50;;;;;;;;;;5092477;28;20058;-74
2022/07/16 13:21:24;;;;;;;0.50;0.50;;;;;;;;;;5094333;28;20035;-74
2022/07/16 13:23:53;;;;;;;0.52;0.30;;;;;;;;;;5085096;28;20020;-74
2022/07/16 13:26:24;;;;;;;0.73;0.40;;;;;;;;;;5093924;28;20154;-74
2022/07/16 13:28:50;;;;;;;0.75;0.50;;;;;;;;;;5092581;28;20465;-75
2022/07/16 13:31:16;;;;;;;0.80;0.45;;;;;;;;;;5092442;28;20042;-75
2022/07/16 13:33:41;;;;;;;0.45;0.40;;;;;;;;;;5092572;28;20171;-75
2022/07/16 13:36:09;;;;;;;0.30;0.30;;;;;;;;;;5093213;28;20028;-76
2022/07/16 13:38:37;;;;;;;1.15;0.35;;;;;;;;;;5093595;28;20081;-75
2022/07/16 13:41:05;;;;;;;0.10;0.10;;;;;;;;;;5092483;28;20024;-75
2022/07/16 13:43:31;;;;;;;0.35;0.35;;;;;;;;;;5092467;28;20012;-74
2022/07/16 13:45:58;;;;;;;0.38;0.22;;;;;;;;;;5092779;28;20107;-75
2022/07/16 13:48:26;;;;;;;0.30;0.30;;;;;;;;;;5090446;28;20024;-76
2022/07/16 13:50:51;;;;;;;0.20;0.20;;;;;;;;;;5091798;28;20035;-76
2022/07/16 13:53:17;;;;;;;1.45;0.75;;;;;;;;;;5092330;28;20028;-75
2022/07/16 13:55:42;;;;;;;1.63;0.80;;;;;;;;;;5092818;28;20039;-76
2022/07/16 13:58:13;;;;;;;0.57;0.30;;;;;;;;;;5093278;28;20116;-76
2022/07/16 14:00:42;;;;;;;0.65;0.25;;;;;;;;;;5094016;28;20349;-77
2022/07/16 14:03:08;;;;;;;0.17;0.15;;;;;;;;;;5090613;28;20024;-76
2022/07/16 14:05:33;;;;;;;0.75;0.30;;;;;;;;;;5087216;28;20047;-76
2022/07/16 14:07:58;;;;;;;0.93;0.57;;;;;;;;;;5095989;28;20416;-76
2022/07/16 14:10:24;;;;;;;4.45;0.30;;;;;;;;;;5088519;28;20034;-76
2022/07/16 14:13:02;;;;;;;0.75;0.40;;;;;;;;;;5092521;28;20121;-75
2022/07/16 14:15:29;;;;;;;0.25;0.20;;;;;;;;;;5089755;28;20084;-75
2022/07/16 14:18:03;;;;;;;0.65;0.57;;;;;;;;;;5087326;28;20073;-76
2022/07/16 14:20:32;;;;;;;0.70;0.57;;;;;;;;;;5065357;28;20115;-76
2022/07/16 14:22:58;;;;;;;0.70;0.40;;;;;;;;;;5089240;28;20326;-75
2022/07/16 14:25:24;;;;;;;0.20;0.20;;;;;;;;;;5084037;28;20020;-76
2022/07/16 14:27:49;;;;;;;1.35;0.47;;;;;;;;;;5078210;28;20030;-76
2022/07/16 14:30:17;;;;;;;0.90;0.13;;;;;;;;;;5082446;28;20107;-75
2022/07/16 14:32:46;;;;;;;0.55;0.38;;;;;;;;;;5087784;28;20020;-76
2022/07/16 14:35:16;;;;;;;0.10;0.10;;;;;;;;;;5094897;28;20028;-78
2022/07/16 14:37:45;;;;;;;0.20;0.20;;;;;;;;;;5087991;28;20334;-76
2022/07/16 14:40:14;;;;;;;0.20;0.20;;;;;;;;;;5096661;28;20043;-75
2022/07/16 14:42:40;;;;;;;0.15;0.15;;;;;;;;;;5096311;28;20151;-75
2022/07/16 14:45:07;;;;;;;0.75;0.20;;;;;;;;;;5093872;28;20110;-76
2022/07/16 14:47:34;;;;;;;0.30;0.30;;;;;;;;;;5095692;28;20038;-75
2022/07/16 14:49:59;;;;;;;0.30;0.20;;;;;;;;;;5091411;28;20030;-74
2022/07/16 14:52:29;;;;;;;0.75;0.28;;;;;;;;;;5092334;28;20136;-75
2022/07/16 14:54:55;;;;;;;0.47;0.38;;;;;;;;;;5090826;28;20024;-75
2022/07/16 14:57:23;;;;;;;0.50;0.30;;;;;;;;;;5091600;28;20475;-76
2022/07/16 14:59:48;;;;;;;0.38;0.38;;;;;;;;;;5088299;28;20505;-75
2022/07/16 15:02:16;;;;;;;0.35;0.20;;;;;;;;;;5085705;28;20093;-74
2022/07/16 15:04:44;;;;;;;0.00;0.00;;;;;;;;;;5073582;28;20032;-76